KHBG/HBG METAR and TAF weather

Enter ICAO airport designator
Station Type Date Time Source
KHBG METAR 2023/03/28 11:53 UTC NOAA

KHBG 281153Z AUTO 05003KT 10SM BKN070 BKN110 17/15 A3002 RMK AO2 LTG DSNT S-W SLP163 60001 70001 T01720150 10222 20167 53002


Station Type Date Time Source
KHBG Decoded METAR 2023/03/28 11:53 UTC NOAA

HATTIESBURG CHAIN MUNICIPAL, MS, United States (KHBG) 31-16N 89-15W 44M
Mar 28, 2023 - 07:53 AM EDT / 2023.03.28 1153 UTC
Wind: from the NE (050 degrees) at 3 MPH (3 KT):0
Visibility: 10 mile(s):0
Sky conditions: mostly cloudy
Weather: Lightning observed
Temperature: 63.0 F (17.2 C)
Dew Point: 59.0 F (15.0 C)
Relative Humidity: 86%
Pressure (altimeter): 30.02 in. Hg (1016 hPa)
Pressure tendency: 0.01 inches (0.2 hPa) higher than three hours ago
ob: KHBG 281153Z AUTO 05003KT 10SM BKN070 BKN110 17/15 A3002 RMK AO2 LTG DSNT S-W SLP163 60001 70001 T01720150 10222 20167 53002
cycle: 12

Station Type Date Time Source
KHBG TAF 2023/03/28 12:45 UTC NOAA

TAF KHBG 281142Z 2812/2912 34005KT P6SM -SHRA VCTS BKN015CB BKN035
FM281600 34006KT P6SM VCTS BKN025CB
FM282000 35009KT P6SM SCT060

Example: see airport list